sensor_id;sensor_type;location;lat;lon;timestamp;P1;durP1;ratioP1;P2;durP2;ratioP2
58015;SDS011;43809;52.110;20.964;2023-11-22T00:00:55;12.13;;;6.50;;
58015;SDS011;43809;52.110;20.964;2023-11-22T00:02:55;10.77;;;5.70;;
58015;SDS011;43809;52.110;20.964;2023-11-22T00:04:56;11.38;;;6.53;;
58015;SDS011;43809;52.110;20.964;2023-11-22T00:06:58;10.40;;;6.47;;
58015;SDS011;43809;52.110;20.964;2023-11-22T00:08:59;12.50;;;6.85;;
58015;SDS011;43809;52.110;20.964;2023-11-22T00:11:00;11.57;;;5.80;;
58015;SDS011;43809;52.110;20.964;2023-11-22T00:13:00;11.98;;;6.25;;
58015;SDS011;43809;52.110;20.964;2023-11-22T00:15:02;10.95;;;5.47;;
58015;SDS011;43809;52.110;20.964;2023-11-22T00:19:04;11.18;;;6.10;;
58015;SDS011;43809;52.110;20.964;2023-11-22T00:21:06;10.85;;;6.07;;
58015;SDS011;43809;52.110;20.964;2023-11-22T00:23:07;11.18;;;6.18;;
58015;SDS011;43809;52.110;20.964;2023-11-22T00:25:08;11.88;;;6.80;;
58015;SDS011;43809;52.110;20.964;2023-11-22T00:27:09;10.35;;;6.80;;
58015;SDS011;43809;52.110;20.964;2023-11-22T00:29:10;12.15;;;7.40;;
58015;SDS011;43809;52.110;20.964;2023-11-22T00:31:12;11.77;;;7.10;;
58015;SDS011;43809;52.110;20.964;2023-11-22T00:33:15;9.68;;;6.50;;
58015;SDS011;43809;52.110;20.964;2023-11-22T00:35:16;11.77;;;6.72;;
58015;SDS011;43809;52.110;20.964;2023-11-22T00:37:16;12.77;;;7.15;;
58015;SDS011;43809;52.110;20.964;2023-11-22T00:39:17;14.02;;;7.05;;
58015;SDS011;43809;52.110;20.964;2023-11-22T00:41:18;11.38;;;6.78;;
58015;SDS011;43809;52.110;20.964;2023-11-22T00:43:19;9.95;;;6.30;;
58015;SDS011;43809;52.110;20.964;2023-11-22T00:45:19;13.00;;;7.55;;
58015;SDS011;43809;52.110;20.964;2023-11-22T00:49:30;11.45;;;6.47;;
58015;SDS011;43809;52.110;20.964;2023-11-22T00:51:31;11.52;;;6.35;;
58015;SDS011;43809;52.110;20.964;2023-11-22T00:53:33;11.60;;;6.38;;
58015;SDS011;43809;52.110;20.964;2023-11-22T00:55:33;12.85;;;6.60;;
58015;SDS011;43809;52.110;20.964;2023-11-22T00:57:35;10.00;;;5.88;;
58015;SDS011;43809;52.110;20.964;2023-11-22T01:01:38;8.73;;;5.28;;
58015;SDS011;43809;52.110;20.964;2023-11-22T01:03:39;8.95;;;5.90;;
58015;SDS011;43809;52.110;20.964;2023-11-22T01:05:40;8.93;;;5.43;;
58015;SDS011;43809;52.110;20.964;2023-11-22T01:07:40;10.43;;;5.72;;
58015;SDS011;43809;52.110;20.964;2023-11-22T01:09:52;12.70;;;6.50;;
58015;SDS011;43809;52.110;20.964;2023-11-22T01:11:53;11.45;;;6.25;;
58015;SDS011;43809;52.110;20.964;2023-11-22T01:13:54;10.90;;;6.30;;
58015;SDS011;43809;52.110;20.964;2023-11-22T01:15:55;9.20;;;6.22;;
58015;SDS011;43809;52.110;20.964;2023-11-22T01:18:07;12.27;;;6.82;;
58015;SDS011;43809;52.110;20.964;2023-11-22T01:20:08;8.97;;;6.53;;
58015;SDS011;43809;52.110;20.964;2023-11-22T01:22:11;14.38;;;7.55;;
58015;SDS011;43809;52.110;20.964;2023-11-22T01:24:12;11.68;;;7.75;;
58015;SDS011;43809;52.110;20.964;2023-11-22T01:26:12;12.23;;;7.00;;
58015;SDS011;43809;52.110;20.964;2023-11-22T01:28:13;11.88;;;7.22;;
58015;SDS011;43809;52.110;20.964;2023-11-22T01:30:14;11.40;;;7.57;;
58015;SDS011;43809;52.110;20.964;2023-11-22T01:32:15;11.40;;;7.28;;
58015;SDS011;43809;52.110;20.964;2023-11-22T01:34:17;12.05;;;8.13;;
58015;SDS011;43809;52.110;20.964;2023-11-22T01:36:18;11.52;;;7.18;;
58015;SDS011;43809;52.110;20.964;2023-11-22T01:38:19;10.98;;;7.80;;
58015;SDS011;43809;52.110;20.964;2023-11-22T01:40:32;10.18;;;6.45;;
58015;SDS011;43809;52.110;20.964;2023-11-22T01:42:32;11.40;;;6.47;;
58015;SDS011;43809;52.110;20.964;2023-11-22T01:44:34;9.50;;;6.53;;
58015;SDS011;43809;52.110;20.964;2023-11-22T01:46:35;9.45;;;6.30;;
58015;SDS011;43809;52.110;20.964;2023-11-22T01:48:36;9.98;;;6.82;;
58015;SDS011;43809;52.110;20.964;2023-11-22T01:50:41;9.75;;;6.53;;
58015;SDS011;43809;52.110;20.964;2023-11-22T01:52:42;10.65;;;6.60;;
58015;SDS011;43809;52.110;20.964;2023-11-22T01:54:44;8.98;;;6.35;;
58015;SDS011;43809;52.110;20.964;2023-11-22T01:56:45;12.43;;;7.22;;
58015;SDS011;43809;52.110;20.964;2023-11-22T01:58:46;11.23;;;6.95;;
58015;SDS011;43809;52.110;20.964;2023-11-22T02:00:49;11.20;;;7.05;;
58015;SDS011;43809;52.110;20.964;2023-11-22T02:02:50;10.77;;;6.70;;
58015;SDS011;43809;52.110;20.964;2023-11-22T02:05:05;9.55;;;6.30;;
58015;SDS011;43809;52.110;20.964;2023-11-22T02:07:06;9.95;;;6.47;;
58015;SDS011;43809;52.110;20.964;2023-11-22T02:09:06;11.50;;;6.93;;
58015;SDS011;43809;52.110;20.964;2023-11-22T02:11:09;9.93;;;6.60;;
58015;SDS011;43809;52.110;20.964;2023-11-22T02:13:10;10.32;;;7.10;;
58015;SDS011;43809;52.110;20.964;2023-11-22T02:15:11;9.13;;;6.60;;
58015;SDS011;43809;52.110;20.964;2023-11-22T02:19:23;9.07;;;6.13;;
58015;SDS011;43809;52.110;20.964;2023-11-22T02:21:24;9.05;;;5.97;;
58015;SDS011;43809;52.110;20.964;2023-11-22T02:23:25;9.75;;;6.53;;
58015;SDS011;43809;52.110;20.964;2023-11-22T02:25:27;9.50;;;6.27;;
58015;SDS011;43809;52.110;20.964;2023-11-22T02:27:27;8.50;;;5.07;;
58015;SDS011;43809;52.110;20.964;2023-11-22T02:29:28;7.55;;;4.90;;
58015;SDS011;43809;52.110;20.964;2023-11-22T02:31:31;8.90;;;5.93;;
58015;SDS011;43809;52.110;20.964;2023-11-22T02:33:34;8.70;;;5.70;;
58015;SDS011;43809;52.110;20.964;2023-11-22T02:35:36;8.23;;;5.40;;
58015;SDS011;43809;52.110;20.964;2023-11-22T02:37:37;11.90;;;5.97;;
58015;SDS011;43809;52.110;20.964;2023-11-22T02:39:54;7.97;;;5.43;;
58015;SDS011;43809;52.110;20.964;2023-11-22T02:41:56;7.93;;;4.97;;
58015;SDS011;43809;52.110;20.964;2023-11-22T02:43:57;8.15;;;5.32;;
58015;SDS011;43809;52.110;20.964;2023-11-22T02:45:57;9.80;;;5.70;;
58015;SDS011;43809;52.110;20.964;2023-11-22T02:48:01;8.43;;;4.75;;
58015;SDS011;43809;52.110;20.964;2023-11-22T02:50:04;7.75;;;4.88;;
58015;SDS011;43809;52.110;20.964;2023-11-22T02:52:05;7.45;;;5.07;;
58015;SDS011;43809;52.110;20.964;2023-11-22T02:54:06;6.85;;;4.88;;
58015;SDS011;43809;52.110;20.964;2023-11-22T02:56:07;7.25;;;4.47;;
58015;SDS011;43809;52.110;20.964;2023-11-22T02:58:08;5.00;;;4.22;;
58015;SDS011;43809;52.110;20.964;2023-11-22T03:00:09;6.80;;;4.40;;
58015;SDS011;43809;52.110;20.964;2023-11-22T03:04:37;8.23;;;5.13;;
58015;SDS011;43809;52.110;20.964;2023-11-22T03:06:38;7.40;;;5.20;;
58015;SDS011;43809;52.110;20.964;2023-11-22T03:08:39;6.88;;;4.53;;
58015;SDS011;43809;52.110;20.964;2023-11-22T03:10:40;8.45;;;4.97;;
58015;SDS011;43809;52.110;20.964;2023-11-22T03:12:40;6.53;;;4.50;;
58015;SDS011;43809;52.110;20.964;2023-11-22T03:14:41;7.53;;;4.93;;
58015;SDS011;43809;52.110;20.964;2023-11-22T03:16:42;8.48;;;4.82;;
58015;SDS011;43809;52.110;20.964;2023-11-22T03:18:43;8.18;;;5.10;;
58015;SDS011;43809;52.110;20.964;2023-11-22T03:20:45;7.15;;;4.57;;
58015;SDS011;43809;52.110;20.964;2023-11-22T03:25:23;7.82;;;4.57;;
58015;SDS011;43809;52.110;20.964;2023-11-22T03:27:24;7.93;;;4.57;;
58015;SDS011;43809;52.110;20.964;2023-11-22T03:29:25;7.07;;;5.03;;
58015;SDS011;43809;52.110;20.964;2023-11-22T03:31:27;8.02;;;4.57;;
58015;SDS011;43809;52.110;20.964;2023-11-22T03:33:28;6.78;;;4.45;;
58015;SDS011;43809;52.110;20.964;2023-11-22T03:35:28;6.75;;;4.13;;
58015;SDS011;43809;52.110;20.964;2023-11-22T03:37:29;6.72;;;4.78;;
58015;SDS011;43809;52.110;20.964;2023-11-22T03:39:30;5.35;;;3.80;;
58015;SDS011;43809;52.110;20.964;2023-11-22T03:41:31;5.78;;;4.07;;
58015;SDS011;43809;52.110;20.964;2023-11-22T03:43:31;5.53;;;4.38;;
58015;SDS011;43809;52.110;20.964;2023-11-22T03:45:32;6.05;;;4.13;;
58015;SDS011;43809;52.110;20.964;2023-11-22T03:49:39;8.50;;;4.68;;
58015;SDS011;43809;52.110;20.964;2023-11-22T03:51:40;6.90;;;4.32;;
58015;SDS011;43809;52.110;20.964;2023-11-22T03:53:41;5.90;;;4.17;;
58015;SDS011;43809;52.110;20.964;2023-11-22T03:55:42;7.50;;;5.10;;
58015;SDS011;43809;52.110;20.964;2023-11-22T03:57:43;6.50;;;4.70;;
58015;SDS011;43809;52.110;20.964;2023-11-22T03:59:44;6.40;;;4.13;;
58015;SDS011;43809;52.110;20.964;2023-11-22T04:01:45;6.68;;;4.78;;
58015;SDS011;43809;52.110;20.964;2023-11-22T04:03:46;7.07;;;4.72;;
58015;SDS011;43809;52.110;20.964;2023-11-22T04:05:48;8.50;;;5.82;;
58015;SDS011;43809;52.110;20.964;2023-11-22T04:08:01;7.50;;;4.63;;
58015;SDS011;43809;52.110;20.964;2023-11-22T04:10:01;7.32;;;4.82;;
58015;SDS011;43809;52.110;20.964;2023-11-22T04:12:02;6.35;;;4.38;;
58015;SDS011;43809;52.110;20.964;2023-11-22T04:14:04;7.35;;;4.90;;
58015;SDS011;43809;52.110;20.964;2023-11-22T04:16:06;7.30;;;4.35;;
58015;SDS011;43809;52.110;20.964;2023-11-22T04:18:09;5.80;;;4.22;;
58015;SDS011;43809;52.110;20.964;2023-11-22T04:20:09;6.82;;;4.68;;
58015;SDS011;43809;52.110;20.964;2023-11-22T04:22:11;7.20;;;4.57;;
58015;SDS011;43809;52.110;20.964;2023-11-22T04:24:12;7.28;;;5.25;;
58015;SDS011;43809;52.110;20.964;2023-11-22T04:26:12;6.75;;;4.57;;
58015;SDS011;43809;52.110;20.964;2023-11-22T04:28:13;7.15;;;4.55;;
58015;SDS011;43809;52.110;20.964;2023-11-22T04:30:15;5.80;;;3.92;;
58015;SDS011;43809;52.110;20.964;2023-11-22T04:32:17;7.32;;;4.32;;
58015;SDS011;43809;52.110;20.964;2023-11-22T04:34:18;7.15;;;4.35;;
58015;SDS011;43809;52.110;20.964;2023-11-22T04:36:19;7.00;;;4.30;;
58015;SDS011;43809;52.110;20.964;2023-11-22T04:38:20;7.53;;;4.72;;
58015;SDS011;43809;52.110;20.964;2023-11-22T04:40:21;8.20;;;5.15;;
58015;SDS011;43809;52.110;20.964;2023-11-22T04:42:22;6.68;;;4.03;;
58015;SDS011;43809;52.110;20.964;2023-11-22T04:44:22;7.25;;;4.70;;
58015;SDS011;43809;52.110;20.964;2023-11-22T04:46:23;7.18;;;4.53;;
58015;SDS011;43809;52.110;20.964;2023-11-22T04:48:24;5.55;;;4.60;;
58015;SDS011;43809;52.110;20.964;2023-11-22T04:50:25;7.25;;;4.82;;
58015;SDS011;43809;52.110;20.964;2023-11-22T04:52:25;6.03;;;4.30;;
58015;SDS011;43809;52.110;20.964;2023-11-22T04:54:26;7.05;;;4.63;;
58015;SDS011;43809;52.110;20.964;2023-11-22T04:56:27;7.47;;;4.75;;
58015;SDS011;43809;52.110;20.964;2023-11-22T04:58:28;6.53;;;4.72;;
58015;SDS011;43809;52.110;20.964;2023-11-22T05:00:29;8.25;;;4.78;;
58015;SDS011;43809;52.110;20.964;2023-11-22T05:02:29;7.78;;;5.03;;
58015;SDS011;43809;52.110;20.964;2023-11-22T05:04:30;7.07;;;4.40;;
58015;SDS011;43809;52.110;20.964;2023-11-22T05:06:31;6.25;;;4.43;;
58015;SDS011;43809;52.110;20.964;2023-11-22T05:08:31;6.57;;;4.63;;
58015;SDS011;43809;52.110;20.964;2023-11-22T05:10:32;5.85;;;4.38;;
58015;SDS011;43809;52.110;20.964;2023-11-22T05:12:33;5.80;;;4.05;;
58015;SDS011;43809;52.110;20.964;2023-11-22T05:14:34;8.93;;;4.68;;
58015;SDS011;43809;52.110;20.964;2023-11-22T05:16:34;6.28;;;4.53;;
58015;SDS011;43809;52.110;20.964;2023-11-22T05:18:35;7.15;;;4.53;;
58015;SDS011;43809;52.110;20.964;2023-11-22T05:20:36;6.57;;;4.28;;
58015;SDS011;43809;52.110;20.964;2023-11-22T05:22:39;5.70;;;4.45;;
58015;SDS011;43809;52.110;20.964;2023-11-22T05:24:39;7.78;;;5.18;;
58015;SDS011;43809;52.110;20.964;2023-11-22T05:26:41;7.03;;;4.60;;
58015;SDS011;43809;52.110;20.964;2023-11-22T05:28:42;7.45;;;4.57;;
58015;SDS011;43809;52.110;20.964;2023-11-22T05:30:43;6.70;;;4.07;;
58015;SDS011;43809;52.110;20.964;2023-11-22T05:32:45;7.72;;;5.32;;
58015;SDS011;43809;52.110;20.964;2023-11-22T05:34:45;8.10;;;4.72;;
58015;SDS011;43809;52.110;20.964;2023-11-22T05:36:46;6.72;;;4.07;;
58015;SDS011;43809;52.110;20.964;2023-11-22T05:38:49;8.13;;;5.10;;
58015;SDS011;43809;52.110;20.964;2023-11-22T05:40:50;6.30;;;4.18;;
58015;SDS011;43809;52.110;20.964;2023-11-22T05:42:51;6.82;;;4.13;;
58015;SDS011;43809;52.110;20.964;2023-11-22T05:44:52;6.90;;;4.55;;
58015;SDS011;43809;52.110;20.964;2023-11-22T05:46:53;7.53;;;4.50;;
58015;SDS011;43809;52.110;20.964;2023-11-22T05:48:54;6.40;;;4.18;;
58015;SDS011;43809;52.110;20.964;2023-11-22T05:50:55;6.47;;;4.25;;
58015;SDS011;43809;52.110;20.964;2023-11-22T05:52:58;6.45;;;4.68;;
58015;SDS011;43809;52.110;20.964;2023-11-22T05:54:59;7.05;;;4.70;;
58015;SDS011;43809;52.110;20.964;2023-11-22T05:57:04;8.48;;;5.70;;
58015;SDS011;43809;52.110;20.964;2023-11-22T05:59:05;6.93;;;4.70;;
58015;SDS011;43809;52.110;20.964;2023-11-22T06:01:06;6.73;;;4.73;;
58015;SDS011;43809;52.110;20.964;2023-11-22T06:03:07;6.65;;;4.55;;
58015;SDS011;43809;52.110;20.964;2023-11-22T06:05:08;7.37;;;4.80;;
58015;SDS011;43809;52.110;20.964;2023-11-22T06:07:10;8.93;;;5.47;;
58015;SDS011;43809;52.110;20.964;2023-11-22T06:09:11;9.20;;;5.43;;
58015;SDS011;43809;52.110;20.964;2023-11-22T06:11:14;7.93;;;5.45;;
58015;SDS011;43809;52.110;20.964;2023-11-22T06:13:16;11.05;;;5.57;;
58015;SDS011;43809;52.110;20.964;2023-11-22T06:15:16;8.60;;;5.07;;
58015;SDS011;43809;52.110;20.964;2023-11-22T06:17:19;6.97;;;4.80;;
58015;SDS011;43809;52.110;20.964;2023-11-22T06:19:19;7.60;;;5.10;;
58015;SDS011;43809;52.110;20.964;2023-11-22T06:21:20;8.70;;;5.35;;
58015;SDS011;43809;52.110;20.964;2023-11-22T06:23:21;8.82;;;5.05;;
58015;SDS011;43809;52.110;20.964;2023-11-22T06:25:28;8.35;;;5.45;;
58015;SDS011;43809;52.110;20.964;2023-11-22T06:27:29;9.18;;;5.10;;
58015;SDS011;43809;52.110;20.964;2023-11-22T06:29:29;8.70;;;5.68;;
58015;SDS011;43809;52.110;20.964;2023-11-22T06:31:33;7.40;;;4.95;;
58015;SDS011;43809;52.110;20.964;2023-11-22T06:33:34;8.18;;;4.97;;
58015;SDS011;43809;52.110;20.964;2023-11-22T06:35:36;9.48;;;5.57;;
58015;SDS011;43809;52.110;20.964;2023-11-22T06:37:37;8.13;;;5.68;;
58015;SDS011;43809;52.110;20.964;2023-11-22T06:39:38;6.95;;;4.72;;
58015;SDS011;43809;52.110;20.964;2023-11-22T06:41:42;10.02;;;5.65;;
58015;SDS011;43809;52.110;20.964;2023-11-22T06:43:43;8.77;;;5.85;;
58015;SDS011;43809;52.110;20.964;2023-11-22T06:45:44;8.48;;;5.03;;
58015;SDS011;43809;52.110;20.964;2023-11-22T06:47:45;8.13;;;5.27;;
58015;SDS011;43809;52.110;20.964;2023-11-22T06:49:47;10.73;;;6.03;;
58015;SDS011;43809;52.110;20.964;2023-11-22T06:51:48;8.05;;;5.38;;
58015;SDS011;43809;52.110;20.964;2023-11-22T06:53:48;6.20;;;4.63;;
58015;SDS011;43809;52.110;20.964;2023-11-22T06:55:49;6.78;;;5.05;;
58015;SDS011;43809;52.110;20.964;2023-11-22T06:57:50;7.13;;;4.80;;
58015;SDS011;43809;52.110;20.964;2023-11-22T06:59:51;8.52;;;4.85;;
58015;SDS011;43809;52.110;20.964;2023-11-22T07:01:51;7.20;;;4.30;;
58015;SDS011;43809;52.110;20.964;2023-11-22T07:03:52;6.63;;;4.15;;
58015;SDS011;43809;52.110;20.964;2023-11-22T07:05:53;6.00;;;4.22;;
58015;SDS011;43809;52.110;20.964;2023-11-22T07:07:54;6.70;;;4.53;;
58015;SDS011;43809;52.110;20.964;2023-11-22T07:10:02;8.40;;;5.05;;
58015;SDS011;43809;52.110;20.964;2023-11-22T07:12:03;8.45;;;5.13;;
58015;SDS011;43809;52.110;20.964;2023-11-22T07:14:06;7.20;;;4.93;;
58015;SDS011;43809;52.110;20.964;2023-11-22T07:16:07;5.60;;;4.10;;
58015;SDS011;43809;52.110;20.964;2023-11-22T07:18:07;5.80;;;4.07;;
58015;SDS011;43809;52.110;20.964;2023-11-22T07:20:10;5.90;;;4.10;;
58015;SDS011;43809;52.110;20.964;2023-11-22T07:22:17;6.22;;;3.80;;
58015;SDS011;43809;52.110;20.964;2023-11-22T07:24:19;5.80;;;3.63;;
58015;SDS011;43809;52.110;20.964;2023-11-22T07:26:20;5.95;;;4.22;;
58015;SDS011;43809;52.110;20.964;2023-11-22T07:28:21;5.22;;;3.72;;
58015;SDS011;43809;52.110;20.964;2023-11-22T07:30:22;6.95;;;4.43;;
58015;SDS011;43809;52.110;20.964;2023-11-22T07:32:23;5.53;;;3.83;;
58015;SDS011;43809;52.110;20.964;2023-11-22T07:34:24;5.88;;;3.83;;
58015;SDS011;43809;52.110;20.964;2023-11-22T07:36:25;7.10;;;4.30;;
58015;SDS011;43809;52.110;20.964;2023-11-22T07:38:25;5.50;;;3.67;;
58015;SDS011;43809;52.110;20.964;2023-11-22T07:40:26;5.80;;;3.92;;
58015;SDS011;43809;52.110;20.964;2023-11-22T07:42:31;7.63;;;4.68;;
58015;SDS011;43809;52.110;20.964;2023-11-22T07:44:32;6.53;;;4.28;;
58015;SDS011;43809;52.110;20.964;2023-11-22T07:46:33;6.55;;;4.07;;
58015;SDS011;43809;52.110;20.964;2023-11-22T07:48:33;5.30;;;3.88;;
58015;SDS011;43809;52.110;20.964;2023-11-22T07:50:37;6.85;;;4.32;;
58015;SDS011;43809;52.110;20.964;2023-11-22T07:52:39;6.00;;;4.00;;
58015;SDS011;43809;52.110;20.964;2023-11-22T07:54:42;6.47;;;4.47;;
58015;SDS011;43809;52.110;20.964;2023-11-22T07:56:42;5.30;;;3.85;;
58015;SDS011;43809;52.110;20.964;2023-11-22T07:58:48;5.78;;;4.10;;
58015;SDS011;43809;52.110;20.964;2023-11-22T08:00:49;6.57;;;4.38;;
58015;SDS011;43809;52.110;20.964;2023-11-22T08:02:49;7.53;;;4.82;;
58015;SDS011;43809;52.110;20.964;2023-11-22T08:04:50;7.72;;;4.38;;
58015;SDS011;43809;52.110;20.964;2023-11-22T08:06:51;9.98;;;5.18;;
58015;SDS011;43809;52.110;20.964;2023-11-22T08:08:57;6.25;;;4.50;;
58015;SDS011;43809;52.110;20.964;2023-11-22T08:11:01;6.60;;;4.45;;
58015;SDS011;43809;52.110;20.964;2023-11-22T08:13:02;7.03;;;4.60;;
58015;SDS011;43809;52.110;20.964;2023-11-22T08:15:04;5.90;;;4.22;;
58015;SDS011;43809;52.110;20.964;2023-11-22T08:19:20;5.97;;;4.30;;
58015;SDS011;43809;52.110;20.964;2023-11-22T08:21:22;7.43;;;4.57;;
58015;SDS011;43809;52.110;20.964;2023-11-22T08:23:23;6.80;;;4.63;;
58015;SDS011;43809;52.110;20.964;2023-11-22T08:25:28;6.05;;;4.47;;
58015;SDS011;43809;52.110;20.964;2023-11-22T08:27:30;8.85;;;4.78;;
58015;SDS011;43809;52.110;20.964;2023-11-22T08:29:31;7.53;;;4.60;;
58015;SDS011;43809;52.110;20.964;2023-11-22T08:31:32;5.55;;;4.20;;
58015;SDS011;43809;52.110;20.964;2023-11-22T08:33:33;5.40;;;3.88;;
58015;SDS011;43809;52.110;20.964;2023-11-22T08:37:40;6.15;;;4.28;;
58015;SDS011;43809;52.110;20.964;2023-11-22T08:39:41;7.45;;;4.10;;
58015;SDS011;43809;52.110;20.964;2023-11-22T08:41:42;7.93;;;4.63;;
58015;SDS011;43809;52.110;20.964;2023-11-22T08:43:43;5.80;;;4.18;;
58015;SDS011;43809;52.110;20.964;2023-11-22T08:45:44;5.80;;;3.72;;
58015;SDS011;43809;52.110;20.964;2023-11-22T08:47:44;7.25;;;4.03;;
58015;SDS011;43809;52.110;20.964;2023-11-22T08:49:48;5.87;;;3.80;;
58015;SDS011;43809;52.110;20.964;2023-11-22T08:51:49;6.18;;;3.70;;
58015;SDS011;43809;52.110;20.964;2023-11-22T08:53:50;5.80;;;3.80;;
58015;SDS011;43809;52.110;20.964;2023-11-22T08:58:28;6.65;;;4.78;;
58015;SDS011;43809;52.110;20.964;2023-11-22T09:00:29;7.30;;;5.68;;
58015;SDS011;43809;52.110;20.964;2023-11-22T09:02:32;8.02;;;5.35;;
58015;SDS011;43809;52.110;20.964;2023-11-22T09:04:48;6.15;;;4.68;;
58015;SDS011;43809;52.110;20.964;2023-11-22T09:06:49;7.78;;;4.50;;
58015;SDS011;43809;52.110;20.964;2023-11-22T09:08:53;9.55;;;6.75;;
58015;SDS011;43809;52.110;20.964;2023-11-22T09:10:53;10.48;;;7.95;;
58015;SDS011;43809;52.110;20.964;2023-11-22T09:12:57;9.23;;;6.13;;
58015;SDS011;43809;52.110;20.964;2023-11-22T09:15:00;7.40;;;4.88;;
58015;SDS011;43809;52.110;20.964;2023-11-22T09:17:08;6.53;;;4.30;;
58015;SDS011;43809;52.110;20.964;2023-11-22T09:19:10;5.47;;;3.88;;
58015;SDS011;43809;52.110;20.964;2023-11-22T09:21:12;6.55;;;4.22;;
58015;SDS011;43809;52.110;20.964;2023-11-22T09:23:13;5.70;;;4.13;;
58015;SDS011;43809;52.110;20.964;2023-11-22T09:25:27;6.25;;;4.35;;
58015;SDS011;43809;52.110;20.964;2023-11-22T09:27:31;7.18;;;5.15;;
58015;SDS011;43809;52.110;20.964;2023-11-22T09:31:55;8.13;;;6.32;;
58015;SDS011;43809;52.110;20.964;2023-11-22T09:33:55;12.10;;;8.75;;
58015;SDS011;43809;52.110;20.964;2023-11-22T09:35:57;10.65;;;8.50;;
58015;SDS011;43809;52.110;20.964;2023-11-22T09:38:05;9.27;;;6.85;;
58015;SDS011;43809;52.110;20.964;2023-11-22T09:40:11;5.57;;;4.10;;
58015;SDS011;43809;52.110;20.964;2023-11-22T09:42:13;5.70;;;4.47;;
58015;SDS011;43809;52.110;20.964;2023-11-22T09:44:14;7.22;;;4.50;;
58015;SDS011;43809;52.110;20.964;2023-11-22T09:46:17;7.40;;;5.65;;
58015;SDS011;43809;52.110;20.964;2023-11-22T09:48:21;6.32;;;4.55;;
58015;SDS011;43809;52.110;20.964;2023-11-22T09:52:30;4.10;;;3.08;;
58015;SDS011;43809;52.110;20.964;2023-11-22T09:54:32;5.13;;;3.15;;
58015;SDS011;43809;52.110;20.964;2023-11-22T09:56:43;4.95;;;3.10;;
58015;SDS011;43809;52.110;20.964;2023-11-22T09:58:57;6.65;;;3.60;;
58015;SDS011;43809;52.110;20.964;2023-11-22T10:01:10;5.90;;;3.25;;
58015;SDS011;43809;52.110;20.964;2023-11-22T10:05:41;5.00;;;2.58;;
58015;SDS011;43809;52.110;20.964;2023-11-22T10:07:51;4.43;;;2.47;;
58015;SDS011;43809;52.110;20.964;2023-11-22T10:09:52;4.85;;;3.30;;
58015;SDS011;43809;52.110;20.964;2023-11-22T10:11:56;7.55;;;4.55;;
58015;SDS011;43809;52.110;20.964;2023-11-22T10:14:00;5.45;;;3.72;;
58015;SDS011;43809;52.110;20.964;2023-11-22T10:18:29;4.55;;;3.35;;
58015;SDS011;43809;52.110;20.964;2023-11-22T10:20:35;4.82;;;3.13;;
58015;SDS011;43809;52.110;20.964;2023-11-22T10:22:48;4.60;;;3.25;;
58015;SDS011;43809;52.110;20.964;2023-11-22T10:24:49;4.95;;;2.95;;
58015;SDS011;43809;52.110;20.964;2023-11-22T10:26:51;5.35;;;3.08;;
58015;SDS011;43809;52.110;20.964;2023-11-22T10:29:07;6.63;;;3.40;;
58015;SDS011;43809;52.110;20.964;2023-11-22T10:31:11;3.55;;;2.40;;
58015;SDS011;43809;52.110;20.964;2023-11-22T10:33:12;5.88;;;3.38;;
58015;SDS011;43809;52.110;20.964;2023-11-22T10:35:18;3.92;;;2.83;;
58015;SDS011;43809;52.110;20.964;2023-11-22T10:37:22;3.80;;;2.92;;
58015;SDS011;43809;52.110;20.964;2023-11-22T10:41:26;3.33;;;2.50;;
58015;SDS011;43809;52.110;20.964;2023-11-22T10:43:28;3.38;;;2.40;;
58015;SDS011;43809;52.110;20.964;2023-11-22T10:45:32;2.92;;;2.05;;
58015;SDS011;43809;52.110;20.964;2023-11-22T10:47:37;2.28;;;1.73;;
58015;SDS011;43809;52.110;20.964;2023-11-22T10:49:42;3.28;;;2.20;;
58015;SDS011;43809;52.110;20.964;2023-11-22T10:51:44;3.88;;;2.45;;
58015;SDS011;43809;52.110;20.964;2023-11-22T10:53:48;3.50;;;2.15;;
58015;SDS011;43809;52.110;20.964;2023-11-22T10:55:53;4.25;;;2.15;;
58015;SDS011;43809;52.110;20.964;2023-11-22T10:58:01;3.95;;;2.10;;
58015;SDS011;43809;52.110;20.964;2023-11-22T11:00:03;3.63;;;2.47;;
58015;SDS011;43809;52.110;20.964;2023-11-22T11:06:27;3.90;;;2.40;;
58015;SDS011;43809;52.110;20.964;2023-11-22T11:08:33;3.60;;;2.30;;
58015;SDS011;43809;52.110;20.964;2023-11-22T11:10:43;4.97;;;2.80;;
58015;SDS011;43809;52.110;20.964;2023-11-22T11:12:44;3.08;;;2.03;;
58015;SDS011;43809;52.110;20.964;2023-11-22T11:14:45;4.30;;;2.42;;
58015;SDS011;43809;52.110;20.964;2023-11-22T11:16:47;3.60;;;2.15;;
58015;SDS011;43809;52.110;20.964;2023-11-22T11:18:50;3.92;;;2.63;;
58015;SDS011;43809;52.110;20.964;2023-11-22T11:20:51;5.47;;;3.25;;
58015;SDS011;43809;52.110;20.964;2023-11-22T11:22:53;4.20;;;2.65;;
58015;SDS011;43809;52.110;20.964;2023-11-22T11:25:05;3.45;;;2.17;;
58015;SDS011;43809;52.110;20.964;2023-11-22T11:27:06;3.47;;;2.30;;
58015;SDS011;43809;52.110;20.964;2023-11-22T11:29:08;3.28;;;2.00;;
58015;SDS011;43809;52.110;20.964;2023-11-22T11:31:32;5.78;;;3.03;;
58015;SDS011;43809;52.110;20.964;2023-11-22T11:35:56;4.28;;;3.00;;
58015;SDS011;43809;52.110;20.964;2023-11-22T11:40:31;3.70;;;2.20;;
58015;SDS011;43809;52.110;20.964;2023-11-22T11:42:31;3.97;;;2.80;;
58015;SDS011;43809;52.110;20.964;2023-11-22T11:46:53;5.22;;;3.08;;
58015;SDS011;43809;52.110;20.964;2023-11-22T11:48:55;3.97;;;2.60;;
58015;SDS011;43809;52.110;20.964;2023-11-22T11:50:58;3.45;;;2.33;;
58015;SDS011;43809;52.110;20.964;2023-11-22T11:52:59;4.47;;;2.60;;
58015;SDS011;43809;52.110;20.964;2023-11-22T11:55:00;3.97;;;2.55;;
58015;SDS011;43809;52.110;20.964;2023-11-22T11:57:08;4.70;;;2.22;;
58015;SDS011;43809;52.110;20.964;2023-11-22T11:59:09;4.35;;;2.70;;
58015;SDS011;43809;52.110;20.964;2023-11-22T12:01:14;3.27;;;2.37;;
58015;SDS011;43809;52.110;20.964;2023-11-22T12:03:17;2.40;;;2.03;;
58015;SDS011;43809;52.110;20.964;2023-11-22T12:07:28;2.75;;;1.85;;
58015;SDS011;43809;52.110;20.964;2023-11-22T12:09:29;2.45;;;1.73;;
58015;SDS011;43809;52.110;20.964;2023-11-22T12:11:30;2.70;;;1.90;;
58015;SDS011;43809;52.110;20.964;2023-11-22T12:13:31;3.03;;;1.80;;
58015;SDS011;43809;52.110;20.964;2023-11-22T12:15:32;5.10;;;2.65;;
58015;SDS011;43809;52.110;20.964;2023-11-22T12:17:33;4.32;;;2.35;;
58015;SDS011;43809;52.110;20.964;2023-11-22T12:19:34;3.80;;;2.40;;
58015;SDS011;43809;52.110;20.964;2023-11-22T12:21:35;3.20;;;2.53;;
58015;SDS011;43809;52.110;20.964;2023-11-22T12:23:35;2.50;;;2.00;;
58015;SDS011;43809;52.110;20.964;2023-11-22T12:25:36;3.80;;;2.80;;
58015;SDS011;43809;52.110;20.964;2023-11-22T12:27:44;3.72;;;2.33;;
58015;SDS011;43809;52.110;20.964;2023-11-22T12:29:52;2.58;;;2.00;;
58015;SDS011;43809;52.110;20.964;2023-11-22T12:31:52;3.00;;;2.10;;
58015;SDS011;43809;52.110;20.964;2023-11-22T12:33:56;2.75;;;2.20;;
58015;SDS011;43809;52.110;20.964;2023-11-22T12:35:57;4.00;;;2.42;;
58015;SDS011;43809;52.110;20.964;2023-11-22T12:37:58;5.25;;;2.83;;
58015;SDS011;43809;52.110;20.964;2023-11-22T12:40:04;3.53;;;2.05;;
58015;SDS011;43809;52.110;20.964;2023-11-22T12:42:12;3.67;;;2.03;;
58015;SDS011;43809;52.110;20.964;2023-11-22T12:44:13;7.85;;;3.50;;
58015;SDS011;43809;52.110;20.964;2023-11-22T12:46:14;3.65;;;2.55;;
58015;SDS011;43809;52.110;20.964;2023-11-22T12:48:25;3.38;;;2.25;;
58015;SDS011;43809;52.110;20.964;2023-11-22T12:52:30;3.00;;;2.08;;
58015;SDS011;43809;52.110;20.964;2023-11-22T12:54:33;2.88;;;2.15;;